sensor_id;sensor_type;location;lat;lon;timestamp;pressure;altitude;pressure_sealevel;temperature;humidity
38452;BME280;24231;52.514;13.438;2023-04-21T00:01:57;101549.10;;;10.98;65.92
38452;BME280;24231;52.514;13.438;2023-04-21T00:04:25;101547.85;;;10.68;67.45
38452;BME280;24231;52.514;13.438;2023-04-21T00:06:52;101549.11;;;10.60;67.63
38452;BME280;24231;52.514;13.438;2023-04-21T00:09:19;101548.07;;;10.59;68.20
38452;BME280;24231;52.514;13.438;2023-04-21T00:11:46;101549.15;;;10.67;67.72
38452;BME280;24231;52.514;13.438;2023-04-21T00:14:14;101545.98;;;10.55;68.36
38452;BME280;24231;52.514;13.438;2023-04-21T00:16:41;101549.72;;;10.52;68.12
38452;BME280;24231;52.514;13.438;2023-04-21T00:19:09;101548.29;;;10.42;68.44
38452;BME280;24231;52.514;13.438;2023-04-21T00:21:35;101549.02;;;10.44;68.36
38452;BME280;24231;52.514;13.438;2023-04-21T00:24:03;101546.96;;;10.24;69.45
38452;BME280;24231;52.514;13.438;2023-04-21T00:26:30;101543.41;;;10.16;70.16
38452;BME280;24231;52.514;13.438;2023-04-21T00:28:57;101548.40;;;10.06;70.00
38452;BME280;24231;52.514;13.438;2023-04-21T00:31:25;101544.45;;;10.44;68.40
38452;BME280;24231;52.514;13.438;2023-04-21T00:33:52;101543.50;;;10.07;69.11
38452;BME280;24231;52.514;13.438;2023-04-21T00:36:19;101541.78;;;10.21;69.21
38452;BME280;24231;52.514;13.438;2023-04-21T00:38:46;101541.00;;;10.23;68.33
38452;BME280;24231;52.514;13.438;2023-04-21T00:41:13;101537.94;;;10.20;68.52
38452;BME280;24231;52.514;13.438;2023-04-21T00:43:59;101536.58;;;10.80;64.95
38452;BME280;24231;52.514;13.438;2023-04-21T00:46:27;101536.95;;;10.53;66.11
38452;BME280;24231;52.514;13.438;2023-04-21T00:48:54;101533.53;;;10.78;64.74
38452;BME280;24231;52.514;13.438;2023-04-21T00:51:21;101532.42;;;10.40;66.29
38452;BME280;24231;52.514;13.438;2023-04-21T00:53:49;101530.19;;;10.26;67.12
38452;BME280;24231;52.514;13.438;2023-04-21T00:56:17;101524.00;;;10.07;67.63
38452;BME280;24231;52.514;13.438;2023-04-21T00:58:45;101526.20;;;10.11;67.69
38452;BME280;24231;52.514;13.438;2023-04-21T01:01:12;101526.42;;;10.00;67.90
38452;BME280;24231;52.514;13.438;2023-04-21T01:03:39;101524.18;;;9.98;67.79
38452;BME280;24231;52.514;13.438;2023-04-21T01:06:08;101525.98;;;10.27;65.89
38452;BME280;24231;52.514;13.438;2023-04-21T01:08:37;101519.77;;;9.62;68.80
38452;BME280;24231;52.514;13.438;2023-04-21T01:11:09;101526.04;;;10.35;65.20
38452;BME280;24231;52.514;13.438;2023-04-21T01:13:36;101519.65;;;10.94;62.25
38452;BME280;24231;52.514;13.438;2023-04-21T01:16:04;101523.26;;;10.98;61.44
38452;BME280;24231;52.514;13.438;2023-04-21T01:18:31;101530.76;;;9.88;65.76
38452;BME280;24231;52.514;13.438;2023-04-21T01:20:58;101525.51;;;10.73;61.61
38452;BME280;24231;52.514;13.438;2023-04-21T01:23:25;101521.52;;;10.07;64.39
38452;BME280;24231;52.514;13.438;2023-04-21T01:25:52;101521.73;;;9.99;64.64
38452;BME280;24231;52.514;13.438;2023-04-21T01:28:21;101518.14;;;11.47;59.33
38452;BME280;24231;52.514;13.438;2023-04-21T01:30:48;101519.94;;;9.90;64.53
38452;BME280;24231;52.514;13.438;2023-04-21T01:33:16;101512.28;;;9.90;65.47
38452;BME280;24231;52.514;13.438;2023-04-21T01:35:44;101511.01;;;10.32;63.82
38452;BME280;24231;52.514;13.438;2023-04-21T01:38:12;101511.35;;;10.44;62.25
38452;BME280;24231;52.514;13.438;2023-04-21T01:40:38;101513.74;;;10.55;61.44
38452;BME280;24231;52.514;13.438;2023-04-21T01:43:06;101506.45;;;10.10;63.77
38452;BME280;24231;52.514;13.438;2023-04-21T01:45:34;101504.96;;;11.09;59.41
38452;BME280;24231;52.514;13.438;2023-04-21T01:48:01;101509.55;;;9.88;63.32
38452;BME280;24231;52.514;13.438;2023-04-21T01:50:28;101508.11;;;10.58;61.48
38452;BME280;24231;52.514;13.438;2023-04-21T01:52:55;101502.84;;;10.19;62.52
38452;BME280;24231;52.514;13.438;2023-04-21T01:55:22;101504.85;;;9.92;63.01
38452;BME280;24231;52.514;13.438;2023-04-21T01:57:49;101500.83;;;9.72;63.86
38452;BME280;24231;52.514;13.438;2023-04-21T02:00:17;101505.19;;;9.86;63.90
38452;BME280;24231;52.514;13.438;2023-04-21T02:02:44;101498.03;;;9.58;64.76
38452;BME280;24231;52.514;13.438;2023-04-21T02:05:11;101491.22;;;9.76;64.08
38452;BME280;24231;52.514;13.438;2023-04-21T02:07:38;101494.41;;;10.17;62.32
38452;BME280;24231;52.514;13.438;2023-04-21T02:10:06;101494.55;;;9.57;64.47
38452;BME280;24231;52.514;13.438;2023-04-21T02:12:33;101488.64;;;9.58;64.35
38452;BME280;24231;52.514;13.438;2023-04-21T02:15:00;101487.97;;;10.21;61.62
38452;BME280;24231;52.514;13.438;2023-04-21T02:17:27;101490.60;;;9.61;63.13
38452;BME280;24231;52.514;13.438;2023-04-21T02:19:54;101483.81;;;10.02;62.19
38452;BME280;24231;52.514;13.438;2023-04-21T02:22:22;101486.08;;;9.81;62.37
38452;BME280;24231;52.514;13.438;2023-04-21T02:24:49;101489.24;;;9.54;64.38
38452;BME280;24231;52.514;13.438;2023-04-21T02:27:16;101483.35;;;9.83;62.60
38452;BME280;24231;52.514;13.438;2023-04-21T02:29:43;101486.82;;;9.85;61.58
38452;BME280;24231;52.514;13.438;2023-04-21T02:32:11;101482.05;;;9.64;62.44
38452;BME280;24231;52.514;13.438;2023-04-21T02:34:37;101485.32;;;9.78;63.24
38452;BME280;24231;52.514;13.438;2023-04-21T02:37:05;101489.21;;;10.63;59.02
38452;BME280;24231;52.514;13.438;2023-04-21T02:39:32;101485.72;;;9.82;61.65
38452;BME280;24231;52.514;13.438;2023-04-21T02:42:00;101486.62;;;10.81;58.22
38452;BME280;24231;52.514;13.438;2023-04-21T02:44:26;101485.90;;;9.63;62.93
38452;BME280;24231;52.514;13.438;2023-04-21T02:46:53;101482.95;;;9.43;63.68
38452;BME280;24231;52.514;13.438;2023-04-21T02:49:21;101490.39;;;9.28;63.61
38452;BME280;24231;52.514;13.438;2023-04-21T02:51:48;101491.37;;;9.53;62.30
38452;BME280;24231;52.514;13.438;2023-04-21T02:54:14;101489.37;;;9.41;62.62
38452;BME280;24231;52.514;13.438;2023-04-21T02:56:42;101493.28;;;9.61;62.16
38452;BME280;24231;52.514;13.438;2023-04-21T02:59:09;101487.75;;;10.11;59.85
38452;BME280;24231;52.514;13.438;2023-04-21T03:01:35;101486.53;;;9.39;62.56
38452;BME280;24231;52.514;13.438;2023-04-21T03:04:02;101488.88;;;10.27;58.64
38452;BME280;24231;52.514;13.438;2023-04-21T03:06:32;101488.37;;;9.60;61.13
38452;BME280;24231;52.514;13.438;2023-04-21T03:08:59;101485.94;;;10.17;59.13
38452;BME280;24231;52.514;13.438;2023-04-21T03:11:26;101486.02;;;10.53;58.04
38452;BME280;24231;52.514;13.438;2023-04-21T03:13:52;101489.10;;;10.09;58.88
38452;BME280;24231;52.514;13.438;2023-04-21T03:16:19;101486.15;;;9.80;60.68
38452;BME280;24231;52.514;13.438;2023-04-21T03:18:46;101483.85;;;9.16;63.27
38452;BME280;24231;52.514;13.438;2023-04-21T03:21:13;101485.09;;;9.06;63.85
38452;BME280;24231;52.514;13.438;2023-04-21T03:23:40;101483.36;;;9.30;62.73
38452;BME280;24231;52.514;13.438;2023-04-21T03:26:07;101483.30;;;9.00;63.98
38452;BME280;24231;52.514;13.438;2023-04-21T03:28:34;101482.18;;;8.90;64.00
38452;BME280;24231;52.514;13.438;2023-04-21T03:31:02;101490.30;;;8.90;64.64
38452;BME280;24231;52.514;13.438;2023-04-21T03:33:29;101481.32;;;9.01;63.60
38452;BME280;24231;52.514;13.438;2023-04-21T03:35:57;101485.87;;;9.59;61.38
38452;BME280;24231;52.514;13.438;2023-04-21T03:38:23;101482.53;;;9.29;62.32
38452;BME280;24231;52.514;13.438;2023-04-21T03:40:50;101485.83;;;9.47;61.30
38452;BME280;24231;52.514;13.438;2023-04-21T03:43:17;101484.34;;;9.80;60.23
38452;BME280;24231;52.514;13.438;2023-04-21T03:45:44;101485.24;;;9.62;60.72
38452;BME280;24231;52.514;13.438;2023-04-21T03:48:10;101483.64;;;9.71;60.80
38452;BME280;24231;52.514;13.438;2023-04-21T03:50:38;101485.79;;;9.17;62.28
38452;BME280;24231;52.514;13.438;2023-04-21T03:53:05;101485.61;;;8.78;64.32
38452;BME280;24231;52.514;13.438;2023-04-21T03:55:32;101482.24;;;9.13;63.73
38452;BME280;24231;52.514;13.438;2023-04-21T03:57:59;101487.88;;;8.81;63.30
38452;BME280;24231;52.514;13.438;2023-04-21T04:00:26;101495.78;;;8.69;64.66
38452;BME280;24231;52.514;13.438;2023-04-21T04:02:53;101491.67;;;8.75;63.91
38452;BME280;24231;52.514;13.438;2023-04-21T04:05:20;101486.75;;;9.33;62.23
38452;BME280;24231;52.514;13.438;2023-04-21T04:07:47;101496.75;;;9.01;63.52
38452;BME280;24231;52.514;13.438;2023-04-21T04:10:14;101487.45;;;9.68;60.11
38452;BME280;24231;52.514;13.438;2023-04-21T04:12:42;101491.21;;;9.16;62.07
38452;BME280;24231;52.514;13.438;2023-04-21T04:15:09;101494.43;;;8.80;63.47
38452;BME280;24231;52.514;13.438;2023-04-21T04:17:36;101491.85;;;9.51;60.29
38452;BME280;24231;52.514;13.438;2023-04-21T04:20:05;101495.18;;;8.89;63.00
38452;BME280;24231;52.514;13.438;2023-04-21T04:22:32;101490.69;;;9.88;59.87
38452;BME280;24231;52.514;13.438;2023-04-21T04:24:59;101498.78;;;9.49;60.29
38452;BME280;24231;52.514;13.438;2023-04-21T04:27:27;101501.77;;;9.56;59.97
38452;BME280;24231;52.514;13.438;2023-04-21T04:29:53;101500.23;;;9.43;60.45
38452;BME280;24231;52.514;13.438;2023-04-21T04:32:21;101506.06;;;8.73;63.74
38452;BME280;24231;52.514;13.438;2023-04-21T04:34:48;101503.07;;;8.92;62.34
38452;BME280;24231;52.514;13.438;2023-04-21T04:37:15;101512.48;;;8.96;63.16
38452;BME280;24231;52.514;13.438;2023-04-21T04:39:42;101505.41;;;9.27;61.28
38452;BME280;24231;52.514;13.438;2023-04-21T04:42:09;101505.05;;;9.29;61.60
38452;BME280;24231;52.514;13.438;2023-04-21T04:44:36;101503.63;;;9.66;59.77
38452;BME280;24231;52.514;13.438;2023-04-21T04:47:03;101506.52;;;10.34;56.84
38452;BME280;24231;52.514;13.438;2023-04-21T04:49:32;101507.04;;;9.74;58.67
38452;BME280;24231;52.514;13.438;2023-04-21T04:51:59;101507.51;;;9.24;61.55
38452;BME280;24231;52.514;13.438;2023-04-21T04:54:26;101504.92;;;10.31;57.73
38452;BME280;24231;52.514;13.438;2023-04-21T04:56:54;101499.95;;;11.66;52.93
38452;BME280;24231;52.514;13.438;2023-04-21T04:59:21;101503.88;;;9.94;57.44
38452;BME280;24231;52.514;13.438;2023-04-21T05:01:48;101508.85;;;9.91;58.57
38452;BME280;24231;52.514;13.438;2023-04-21T05:04:15;101512.60;;;10.43;56.72
38452;BME280;24231;52.514;13.438;2023-04-21T05:06:42;101512.49;;;10.25;57.40
38452;BME280;24231;52.514;13.438;2023-04-21T05:09:09;101514.66;;;10.13;56.97
38452;BME280;24231;52.514;13.438;2023-04-21T05:11:37;101518.85;;;9.85;59.02
38452;BME280;24231;52.514;13.438;2023-04-21T05:14:03;101519.53;;;10.48;56.33
38452;BME280;24231;52.514;13.438;2023-04-21T05:16:31;101514.06;;;10.75;55.28
38452;BME280;24231;52.514;13.438;2023-04-21T05:19:00;101512.79;;;12.34;50.31
38452;BME280;24231;52.514;13.438;2023-04-21T05:21:27;101509.67;;;12.92;48.82
38452;BME280;24231;52.514;13.438;2023-04-21T05:23:56;101512.60;;;11.97;49.17
38452;BME280;24231;52.514;13.438;2023-04-21T05:26:24;101516.57;;;10.99;53.06
38452;BME280;24231;52.514;13.438;2023-04-21T05:28:51;101519.32;;;10.85;54.49
38452;BME280;24231;52.514;13.438;2023-04-21T05:31:25;101514.59;;;12.87;48.92
38452;BME280;24231;52.514;13.438;2023-04-21T05:33:52;101508.18;;;13.29;47.03
38452;BME280;24231;52.514;13.438;2023-04-21T05:36:19;101515.82;;;12.30;49.34
38452;BME280;24231;52.514;13.438;2023-04-21T05:38:46;101509.50;;;14.79;43.40
38452;BME280;24231;52.514;13.438;2023-04-21T05:41:14;101508.91;;;13.14;46.00
38452;BME280;24231;52.514;13.438;2023-04-21T05:43:41;101510.52;;;14.20;44.28
38452;BME280;24231;52.514;13.438;2023-04-21T05:46:09;101512.40;;;13.82;45.09
38452;BME280;24231;52.514;13.438;2023-04-21T05:48:36;101518.92;;;11.98;49.10
38452;BME280;24231;52.514;13.438;2023-04-21T05:51:08;101518.41;;;12.34;49.08
38452;BME280;24231;52.514;13.438;2023-04-21T05:53:34;101511.30;;;13.78;45.39
38452;BME280;24231;52.514;13.438;2023-04-21T05:56:02;101515.04;;;14.65;43.60
38452;BME280;24231;52.514;13.438;2023-04-21T05:58:29;101510.31;;;14.75;42.92
38452;BME280;24231;52.514;13.438;2023-04-21T06:00:56;101510.80;;;12.42;48.28
38452;BME280;24231;52.514;13.438;2023-04-21T06:03:23;101509.25;;;15.21;42.41
38452;BME280;24231;52.514;13.438;2023-04-21T06:05:53;101503.59;;;14.48;43.73
38452;BME280;24231;52.514;13.438;2023-04-21T06:08:20;101503.94;;;14.48;43.21
38452;BME280;24231;52.514;13.438;2023-04-21T06:10:47;101502.03;;;13.22;46.21
38452;BME280;24231;52.514;13.438;2023-04-21T06:13:14;101499.47;;;14.38;43.59
38452;BME280;24231;52.514;13.438;2023-04-21T06:15:42;101498.34;;;13.42;45.40
38452;BME280;24231;52.514;13.438;2023-04-21T06:18:10;101497.57;;;12.92;46.55
38452;BME280;24231;52.514;13.438;2023-04-21T06:20:37;101490.21;;;15.43;41.52
38452;BME280;24231;52.514;13.438;2023-04-21T06:23:05;101493.26;;;16.55;39.04
38452;BME280;24231;52.514;13.438;2023-04-21T06:25:32;101493.39;;;16.53;38.78
38452;BME280;24231;52.514;13.438;2023-04-21T06:27:59;101487.15;;;14.92;40.99
38452;BME280;24231;52.514;13.438;2023-04-21T06:30:27;101484.37;;;16.81;38.91
38452;BME280;24231;52.514;13.438;2023-04-21T06:32:53;101480.11;;;17.57;36.22
38452;BME280;24231;52.514;13.438;2023-04-21T06:35:21;101488.29;;;14.49;42.25
38452;BME280;24231;52.514;13.438;2023-04-21T06:37:48;101486.76;;;16.23;39.11
38452;BME280;24231;52.514;13.438;2023-04-21T06:40:15;101481.05;;;16.83;38.30
38452;BME280;24231;52.514;13.438;2023-04-21T06:42:43;101484.12;;;15.74;39.97
38452;BME280;24231;52.514;13.438;2023-04-21T06:45:10;101478.48;;;16.59;38.61
38452;BME280;24231;52.514;13.438;2023-04-21T06:47:37;101478.16;;;15.14;40.52
38452;BME280;24231;52.514;13.438;2023-04-21T06:50:05;101475.82;;;17.74;36.52
38452;BME280;24231;52.514;13.438;2023-04-21T06:52:32;101471.73;;;17.98;35.69
38452;BME280;24231;52.514;13.438;2023-04-21T06:54:59;101470.24;;;18.20;35.04
38452;BME280;24231;52.514;13.438;2023-04-21T06:57:26;101472.25;;;16.46;36.90
38452;BME280;24231;52.514;13.438;2023-04-21T06:59:52;101466.26;;;18.41;34.82
38452;BME280;24231;52.514;13.438;2023-04-21T07:02:20;101466.61;;;18.02;35.40
38452;BME280;24231;52.514;13.438;2023-04-21T07:04:55;101472.62;;;17.75;35.02
38452;BME280;24231;52.514;13.438;2023-04-21T07:07:23;101462.13;;;18.64;34.26
38452;BME280;24231;52.514;13.438;2023-04-21T07:09:55;101464.47;;;18.47;33.70
38452;BME280;24231;52.514;13.438;2023-04-21T07:12:23;101462.83;;;18.71;33.63
38452;BME280;24231;52.514;13.438;2023-04-21T07:14:50;101465.54;;;19.13;33.17
38452;BME280;24231;52.514;13.438;2023-04-21T07:17:17;101468.07;;;17.44;35.55
38452;BME280;24231;52.514;13.438;2023-04-21T07:19:45;101466.48;;;17.92;35.17
38452;BME280;24231;52.514;13.438;2023-04-21T07:22:12;101460.25;;;18.60;34.13
38452;BME280;24231;52.514;13.438;2023-04-21T07:24:39;101457.99;;;18.76;33.88
38452;BME280;24231;52.514;13.438;2023-04-21T07:27:06;101456.83;;;18.84;33.92
38452;BME280;24231;52.514;13.438;2023-04-21T07:29:33;101467.64;;;16.35;37.04
38452;BME280;24231;52.514;13.438;2023-04-21T07:32:01;101464.20;;;15.27;39.21
38452;BME280;24231;52.514;13.438;2023-04-21T07:34:34;101464.82;;;17.52;36.30
38452;BME280;24231;52.514;13.438;2023-04-21T07:37:01;101461.50;;;17.95;35.18
38452;BME280;24231;52.514;13.438;2023-04-21T07:39:28;101456.58;;;17.82;35.41
38452;BME280;24231;52.514;13.438;2023-04-21T07:41:55;101460.46;;;18.81;33.48
38452;BME280;24231;52.514;13.438;2023-04-21T07:44:22;101458.15;;;16.83;36.04
38452;BME280;24231;52.514;13.438;2023-04-21T07:46:50;101457.09;;;17.92;34.69
38452;BME280;24231;52.514;13.438;2023-04-21T07:49:17;101451.98;;;18.54;33.77
38452;BME280;24231;52.514;13.438;2023-04-21T07:51:44;101457.62;;;19.99;31.98
38452;BME280;24231;52.514;13.438;2023-04-21T07:54:11;101456.55;;;17.55;34.58
38452;BME280;24231;52.514;13.438;2023-04-21T07:56:38;101456.35;;;17.85;34.27
38452;BME280;24231;52.514;13.438;2023-04-21T07:59:05;101455.62;;;18.19;33.94
38452;BME280;24231;52.514;13.438;2023-04-21T08:01:32;101457.21;;;16.64;36.62
38452;BME280;24231;52.514;13.438;2023-04-21T08:03:59;101461.66;;;18.19;33.69
38452;BME280;24231;52.514;13.438;2023-04-21T08:06:26;101455.26;;;19.00;32.61
38452;BME280;24231;52.514;13.438;2023-04-21T08:08:54;101454.73;;;19.53;31.71
38452;BME280;24231;52.514;13.438;2023-04-21T08:11:21;101450.82;;;19.53;31.49
38452;BME280;24231;52.514;13.438;2023-04-21T08:13:48;101452.69;;;19.91;31.09
38452;BME280;24231;52.514;13.438;2023-04-21T08:16:16;101449.24;;;18.55;32.49
38452;BME280;24231;52.514;13.438;2023-04-21T08:18:43;101456.96;;;17.43;35.52
38452;BME280;24231;52.514;13.438;2023-04-21T08:21:10;101447.66;;;17.95;33.75
38452;BME280;24231;52.514;13.438;2023-04-21T08:23:37;101444.96;;;19.59;32.37
38452;BME280;24231;52.514;13.438;2023-04-21T08:26:05;101440.62;;;19.61;32.14
38452;BME280;24231;52.514;13.438;2023-04-21T08:28:32;101441.30;;;20.32;31.39
38452;BME280;24231;52.514;13.438;2023-04-21T08:30:58;101434.19;;;21.08;29.69
38452;BME280;24231;52.514;13.438;2023-04-21T08:33:26;101432.85;;;21.86;28.97
38452;BME280;24231;52.514;13.438;2023-04-21T08:35:53;101431.87;;;20.69;30.32
38452;BME280;24231;52.514;13.438;2023-04-21T08:38:21;101431.47;;;21.76;29.20
38452;BME280;24231;52.514;13.438;2023-04-21T08:40:48;101440.26;;;21.43;29.23
38452;BME280;24231;52.514;13.438;2023-04-21T08:43:15;101438.69;;;19.65;31.31
38452;BME280;24231;52.514;13.438;2023-04-21T08:45:43;101437.76;;;21.13;28.88
38452;BME280;24231;52.514;13.438;2023-04-21T08:48:13;101430.89;;;20.55;29.87
38452;BME280;24231;52.514;13.438;2023-04-21T08:50:42;101432.43;;;19.02;31.50
38452;BME280;24231;52.514;13.438;2023-04-21T08:53:10;101443.77;;;17.90;34.05
38452;BME280;24231;52.514;13.438;2023-04-21T08:55:37;101430.00;;;19.94;30.77
38452;BME280;24231;52.514;13.438;2023-04-21T08:58:05;101429.92;;;21.22;29.22
38452;BME280;24231;52.514;13.438;2023-04-21T09:00:33;101434.82;;;19.90;30.74
38452;BME280;24231;52.514;13.438;2023-04-21T09:03:00;101440.54;;;19.88;31.35
38452;BME280;24231;52.514;13.438;2023-04-21T09:05:29;101439.03;;;19.48;31.49
38452;BME280;24231;52.514;13.438;2023-04-21T09:08:07;101431.11;;;20.35;30.29
38452;BME280;24231;52.514;13.438;2023-04-21T09:11:20;101422.59;;;20.73;30.02
38452;BME280;24231;52.514;13.438;2023-04-21T09:13:47;101427.65;;;18.87;32.44
38452;BME280;24231;52.514;13.438;2023-04-21T09:16:16;101430.31;;;18.29;33.29
38452;BME280;24231;52.514;13.438;2023-04-21T09:18:44;101423.81;;;20.25;30.87
38452;BME280;24231;52.514;13.438;2023-04-21T09:21:12;101440.34;;;19.39;32.01
38452;BME280;24231;52.514;13.438;2023-04-21T09:23:42;101424.41;;;18.48;33.37
38452;BME280;24231;52.514;13.438;2023-04-21T09:26:09;101423.08;;;20.43;31.05
38452;BME280;24231;52.514;13.438;2023-04-21T09:28:40;101424.54;;;19.09;33.02
38452;BME280;24231;52.514;13.438;2023-04-21T09:31:13;101433.48;;;18.32;34.31
38452;BME280;24231;52.514;13.438;2023-04-21T09:33:44;101422.91;;;18.92;34.00
38452;BME280;24231;52.514;13.438;2023-04-21T09:36:17;101421.61;;;18.12;34.58
38452;BME280;24231;52.514;13.438;2023-04-21T09:38:48;101428.13;;;17.78;35.37
38452;BME280;24231;52.514;13.438;2023-04-21T09:41:16;101424.10;;;18.69;34.22
38452;BME280;24231;52.514;13.438;2023-04-21T09:43:43;101423.41;;;17.84;35.65
38452;BME280;24231;52.514;13.438;2023-04-21T09:46:11;101417.46;;;17.95;34.96
38452;BME280;24231;52.514;13.438;2023-04-21T09:48:42;101415.31;;;18.45;33.96
38452;BME280;24231;52.514;13.438;2023-04-21T09:51:13;101416.55;;;19.22;32.81
38452;BME280;24231;52.514;13.438;2023-04-21T09:53:44;101407.16;;;18.52;33.88
38452;BME280;24231;52.514;13.438;2023-04-21T09:56:12;101406.27;;;20.19;32.00
38452;BME280;24231;52.514;13.438;2023-04-21T09:58:45;101405.40;;;21.91;29.48
38452;BME280;24231;52.514;13.438;2023-04-21T10:01:13;101410.30;;;20.14;30.00
38452;BME280;24231;52.514;13.438;2023-04-21T10:03:42;101428.47;;;19.03;31.60
38452;BME280;24231;52.514;13.438;2023-04-21T10:06:11;101430.77;;;19.11;31.29
38452;BME280;24231;52.514;13.438;2023-04-21T10:08:39;101416.01;;;17.86;32.53
38452;BME280;24231;52.514;13.438;2023-04-21T10:11:06;101403.86;;;19.35;31.08
38452;BME280;24231;52.514;13.438;2023-04-21T10:13:36;101406.02;;;19.47;31.18
38452;BME280;24231;52.514;13.438;2023-04-21T10:16:05;101406.16;;;19.12;31.19
38452;BME280;24231;52.514;13.438;2023-04-21T10:18:35;101402.68;;;18.71;31.85
38452;BME280;24231;52.514;13.438;2023-04-21T10:21:05;101397.39;;;18.07;32.38
38452;BME280;24231;52.514;13.438;2023-04-21T10:23:38;101399.84;;;18.61;31.64
38452;BME280;24231;52.514;13.438;2023-04-21T10:26:10;101407.91;;;18.24;31.74
38452;BME280;24231;52.514;13.438;2023-04-21T10:28:40;101408.04;;;18.28;31.14
38452;BME280;24231;52.514;13.438;2023-04-21T10:31:28;101398.52;;;18.16;31.40
38452;BME280;24231;52.514;13.438;2023-04-21T10:35:00;101401.81;;;17.94;31.74
38452;BME280;24231;52.514;13.438;2023-04-21T10:37:30;101386.16;;;18.32;31.81
38452;BME280;24231;52.514;13.438;2023-04-21T10:39:57;101392.08;;;17.99;31.55
38452;BME280;24231;52.514;13.438;2023-04-21T10:42:28;101392.75;;;17.68;33.15
38452;BME280;24231;52.514;13.438;2023-04-21T10:45:11;101385.03;;;17.97;32.48
38452;BME280;24231;52.514;13.438;2023-04-21T10:47:41;101381.63;;;17.39;33.36
38452;BME280;24231;52.514;13.438;2023-04-21T10:50:15;101372.65;;;18.34;31.69
38452;BME280;24231;52.514;13.438;2023-04-21T10:52:45;101378.96;;;18.60;31.69
38452;BME280;24231;52.514;13.438;2023-04-21T10:55:12;101372.71;;;17.95;33.30
38452;BME280;24231;52.514;13.438;2023-04-21T10:57:42;101365.78;;;18.26;33.12
38452;BME280;24231;52.514;13.438;2023-04-21T11:00:11;101363.34;;;18.85;31.89
38452;BME280;24231;52.514;13.438;2023-04-21T11:02:38;101359.19;;;18.89;31.87
38452;BME280;24231;52.514;13.438;2023-04-21T11:05:06;101360.19;;;18.61;32.31
38452;BME280;24231;52.514;13.438;2023-04-21T11:07:34;101350.67;;;18.73;31.41
38452;BME280;24231;52.514;13.438;2023-04-21T11:10:05;101350.85;;;17.98;32.03
38452;BME280;24231;52.514;13.438;2023-04-21T11:12:35;101360.46;;;17.88;32.66
38452;BME280;24231;52.514;13.438;2023-04-21T11:15:04;101344.89;;;19.30;30.32
38452;BME280;24231;52.514;13.438;2023-04-21T11:17:32;101335.33;;;18.52;31.66
38452;BME280;24231;52.514;13.438;2023-04-21T11:20:01;101343.91;;;18.91;31.32
38452;BME280;24231;52.514;13.438;2023-04-21T11:22:28;101335.08;;;19.01;31.18
38452;BME280;24231;52.514;13.438;2023-04-21T11:24:56;101334.75;;;19.07;31.06
38452;BME280;24231;52.514;13.438;2023-04-21T11:27:26;101333.92;;;18.78;31.77
38452;BME280;24231;52.514;13.438;2023-04-21T11:29:54;101329.13;;;18.98;31.55
38452;BME280;24231;52.514;13.438;2023-04-21T11:32:21;101341.83;;;18.17;32.35
38452;BME280;24231;52.514;13.438;2023-04-21T11:34:49;101320.06;;;18.22;32.28
38452;BME280;24231;52.514;13.438;2023-04-21T11:37:22;101329.45;;;18.29;32.41
38452;BME280;24231;52.514;13.438;2023-04-21T11:39:55;101319.14;;;17.78;33.31
38452;BME280;24231;52.514;13.438;2023-04-21T11:42:23;101307.96;;;18.49;32.26
38452;BME280;24231;52.514;13.438;2023-04-21T11:44:52;101315.51;;;17.85;32.38
38452;BME280;24231;52.514;13.438;2023-04-21T11:47:22;101329.00;;;17.89;32.26
38452;BME280;24231;52.514;13.438;2023-04-21T11:49:51;101316.51;;;18.24;31.58
38452;BME280;24231;52.514;13.438;2023-04-21T11:52:22;101316.18;;;17.85;32.51
38452;BME280;24231;52.514;13.438;2023-04-21T11:54:55;101318.57;;;17.39;33.58
38452;BME280;24231;52.514;13.438;2023-04-21T11:57:23;101306.87;;;17.78;33.23
38452;BME280;24231;52.514;13.438;2023-04-21T11:59:51;101310.47;;;17.84;32.38
38452;BME280;24231;52.514;13.438;2023-04-21T12:02:27;101317.18;;;17.71;31.79
38452;BME280;24231;52.514;13.438;2023-04-21T12:05:02;101309.55;;;17.37;31.66
38452;BME280;24231;52.514;13.438;2023-04-21T12:07:30;101304.90;;;17.85;31.49
38452;BME280;24231;52.514;13.438;2023-04-21T12:09:58;101295.07;;;17.77;32.31
38452;BME280;24231;52.514;13.438;2023-04-21T12:12:26;101293.45;;;17.93;32.77
38452;BME280;24231;52.514;13.438;2023-04-21T12:14:53;101295.70;;;17.96;32.78
38452;BME280;24231;52.514;13.438;2023-04-21T12:17:20;101291.24;;;17.64;33.14
38452;BME280;24231;52.514;13.438;2023-04-21T12:19:48;101291.93;;;18.05;33.12
38452;BME280;24231;52.514;13.438;2023-04-21T12:22:17;101287.12;;;17.66;32.56
38452;BME280;24231;52.514;13.438;2023-04-21T12:24:44;101286.64;;;17.88;32.66
38452;BME280;24231;52.514;13.438;2023-04-21T12:27:12;101288.25;;;17.44;33.40
38452;BME280;24231;52.514;13.438;2023-04-21T12:29:40;101290.27;;;18.14;32.19
38452;BME280;24231;52.514;13.438;2023-04-21T12:32:07;101273.45;;;17.90;32.82
38452;BME280;24231;52.514;13.438;2023-04-21T12:34:35;101264.64;;;18.02;32.57
38452;BME280;24231;52.514;13.438;2023-04-21T12:37:02;101266.75;;;17.30;34.04
38452;BME280;24231;52.514;13.438;2023-04-21T12:39:30;101269.13;;;17.67;33.38
38452;BME280;24231;52.514;13.438;2023-04-21T12:41:58;101257.55;;;18.65;31.53
38452;BME280;24231;52.514;13.438;2023-04-21T12:44:25;101277.62;;;18.02;32.41
38452;BME280;24231;52.514;13.438;2023-04-21T12:46:53;101276.84;;;17.62;33.13
38452;BME280;24231;52.514;13.438;2023-04-21T12:49:20;101287.99;;;17.99;32.61